Flight Track Log - Related Links

Times and Time Zones

All times are in EDT time to prevent confusion due to time zone crossing. See the ZK-NGM flight status page for this flight to view local times or setup timezone preferences in your user account.

Time Position Orientation Groundspeed Altitude Reporting Facility
EDT Latitude Longitude Course Direction KTS MPH feet Rate Location/Type
Thu 01:44:32 AM -43.4398 172.5867 39° Northeast  Level Estimated
Thu 01:45:32 AM -43.3469 172.6885 38° Northeast  Level Estimated
Thu 01:46:32 AM -43.2538 172.7900 38° Northeast  Level Estimated
Thu 01:47:32 AM -43.1607 172.8912 38° Northeast  Level Estimated
Thu 01:48:32 AM -43.0675 172.9921 38° Northeast  Level Estimated
Thu 01:49:32 AM -42.9742 173.0927 38° Northeast  Level Estimated
Thu 01:50:32 AM -42.8808 173.1929 38° Northeast  Level Estimated
Thu 01:51:32 AM -42.7873 173.2929 38° Northeast  Level Estimated
Thu 01:52:32 AM -42.6937 173.3926 38° Northeast  Level Estimated
Thu 01:53:32 AM -42.6001 173.4920 38° Northeast  Level Estimated
Thu 01:54:32 AM -42.5063 173.5910 38° Northeast  Level Estimated
Thu 01:55:32 AM -42.4125 173.6898 38° Northeast  Level Estimated
Thu 01:56:32 AM -42.3186 173.7883 38° Northeast  Level Estimated
Thu 01:57:32 AM -42.2246 173.8865 38° Northeast  Level Estimated
Thu 01:58:32 AM -42.1305 173.9844 38° Northeast  Level Estimated
Thu 01:59:32 AM -42.0363 174.0820 38° Northeast  Level Estimated
Thu 02:00:32 AM -41.9421 174.1793 37° Northeast  Level Estimated
Thu 02:01:32 AM -41.8478 174.2764 37° Northeast  Level Estimated
Thu 02:02:32 AM -41.7533 174.3731 37° Northeast  Level Estimated
Thu 02:03:32 AM -41.6589 174.4696 37° Northeast  Level Estimated
Thu 02:04:32 AM -41.5643 174.5658 37° Northeast  Level Estimated
Thu 02:05:32 AM -41.4696 174.6617 37° Northeast  Level Estimated
Thu 02:06:32 AM -41.3749 174.7573 37° Northeast  Level Estimated
Thu 02:07:32 AM -41.2801 174.8526 217° Southwest  Level Estimated
Thu 02:08:32 AM -41.3749 174.7573 37° Northeast  Level Estimated
Thu 02:09:32 AM -41.2801 174.8526 217° Southwest  Level Estimated
Thu 02:10:32 AM -41.3749 174.7573 37° Northeast  Level Estimated
Thu 02:11:32 AM -41.2801 174.8526 217° Southwest  Level Estimated
Thu 02:12:32 AM -41.3749 174.7573 37° Northeast  Level Estimated
Thu 02:13:32 AM -41.2801 174.8526 217° Southwest  Level Estimated
Thu 02:14:32 AM -41.3749 174.7573 37° Northeast  Level Estimated
Thu 02:15:32 AM -41.2801 174.8526 217° Southwest  Level Estimated
Thu 02:16:32 AM -41.3749 174.7573 37° Northeast  Level Estimated
Thu 02:17:32 AM -41.2801 174.8526 217° Southwest  Level Estimated
Thu 02:18:32 AM -41.3749 174.7573 37° Northeast  Level Estimated
Thu 02:19:32 AM -41.2801 174.8526 217° Southwest  Level Estimated
Thu 02:20:32 AM -41.3749 174.7573 37° Northeast  Level Estimated
Thu 02:21:32 AM -41.2801 174.8526 217° Southwest  Level Estimated
Thu 02:22:32 AM -41.3749 174.7573 217° Southwest  Level Estimated

Login

Don't have an account? Register now (free) for customized features, flight alerts, and more!